| time (UTC) | temp C | wind direction | speed KPH | gust KPH | rain 1hr cm | rain 24hr cm | rain mn cm | humidity % | barometer mb |
| 20260505140620 | 6 | 132 | 8.0 | 16.1 | 0.00 | 0.48 | 0.48 | 80 | 1012.6 |
| 20260505140521 | 6 | 141 | 8.0 | 16.1 | 0.00 | 0.48 | 0.48 | 78 | 1012.6 |
| 20260505140415 | 6 | 157 | 8.0 | 17.7 | 0.00 | 0.48 | 0.48 | 78 | 1012.5 |
| 20260505120620 | 6 | 149 | 9.7 | 19.3 | 0.00 | 0.48 | 0.48 | 78 | 1012.1 |
| 20260505120522 | 6 | 141 | 9.7 | 19.3 | 0.00 | 0.48 | 0.48 | 78 | 1012.1 |
| 20260505120416 | 6 | 150 | 9.7 | 17.7 | 0.00 | 0.48 | 0.48 | 78 | 1012.2 |
| 20260505101327 | 6 | 169 | 8.0 | 16.1 | 0.00 | 0.48 | 0.48 | 79 | 1012.1 |
| 20260505101145 | 5 | 167 | 6.4 | 14.5 | 0.00 | 0.48 | 0.48 | 78 | 1012.1 |
| 20260505101046 | 6 | 148 | 6.4 | 14.5 | 0.00 | 0.48 | 0.48 | 79 | 1012.2 |
| 20260505100944 | 6 | 156 | 6.4 | 14.5 | 0.00 | 0.48 | 0.48 | 79 | 1012.2 |
| 20260505061922 | 6 | 132 | 6.4 | 24.1 | 0.00 | 0.48 | 0.48 | 79 | 1012.1 |
| 20260505061817 | 6 | 142 | 8.0 | 24.1 | 0.00 | 0.48 | 0.48 | 78 | 1012.0 |
| 20260505061717 | 6 | 151 | 11.3 | 20.9 | 0.00 | 0.48 | 0.48 | 80 | 1011.8 |
| 20260505061651 | 6 | 155 | 9.7 | 19.3 | 0.00 | 0.48 | 0.48 | 81 | 1012.0 |
| 20260505061528 | 6 | 163 | 11.3 | 22.5 | 0.00 | 0.48 | 0.48 | 80 | 1012.2 |
| 20260505054138 | 6 | 163 | 11.3 | 22.5 | 0.00 | 0.48 | 0.48 | 80 | 1012.2 |
| 20260505054038 | 7 | 166 | 6.4 | 22.5 | 0.00 | 0.48 | 0.48 | 78 | 1012.2 |
| 20260505053933 | 7 | 144 | 6.4 | 14.5 | 0.00 | 0.48 | 0.48 | 75 | 1012.3 |
| 20260505053831 | 7 | 170 | 1.6 | 4.8 | 0.00 | 0.48 | 0.48 | 71 | 1012.2 |
| 20260505053729 | 7 | 158 | 1.6 | 11.3 | 0.00 | 0.48 | 0.48 | 69 | 1012.1 |
| 20260505053626 | 7 | 126 | 4.8 | 11.3 | 0.00 | 0.48 | 0.48 | 69 | 1012.2 |
| 20260505053526 | 7 | 120 | 3.2 | 8.0 | 0.00 | 0.48 | 0.48 | 72 | 1012.2 |
| 20260505053423 | 7 | 96 | 3.2 | 16.1 | 0.00 | 0.48 | 0.48 | 70 | 1012.3 |
| 20260505053319 | 7 | 96 | 9.7 | 22.5 | 0.00 | 0.48 | 0.48 | 69 | 1012.0 |
| 20260505051559 | 7 | 109 | 14.5 | 22.5 | 0.00 | 0.48 | 0.48 | 69 | 1012.0 |
| 20260505051425 | 7 | 57 | 14.5 | 22.5 | 0.00 | 0.48 | 0.48 | 69 | 1011.9 |
| 20260505050754 | 7 | 82 | 12.9 | 24.1 | 0.00 | 0.48 | 0.48 | 68 | 1011.9 |
| 20260505050651 | 7 | 80 | 14.5 | 24.1 | 0.00 | 0.48 | 0.48 | 68 | 1012.0 |
| 20260505050549 | 7 | 55 | 12.9 | 24.1 | 0.00 | 0.48 | 0.48 | 69 | 1011.9 |
| 20260505050411 | 7 | 84 | 14.5 | 22.5 | 0.00 | 0.48 | 0.48 | 69 | 1012.0 |
| 20260505050311 | 8 | 27 | 9.7 | 22.5 | 0.00 | 0.48 | 0.48 | 68 | 1011.9 |
| 20260505041758 | 10 | 140 | 9.7 | 25.7 | 0.00 | 0.46 | 0.46 | 59 | 1012.7 |
| 20260505041653 | 11 | 200 | 11.3 | 25.7 | 0.00 | 0.46 | 0.46 | 58 | 1012.2 |
| 20260505041554 | 12 | 229 | 3.2 | 8.0 | 0.00 | 0.46 | 0.46 | 56 | 1012.1 |
| 20260505041451 | 12 | 283 | 0.0 | 4.8 | 0.00 | 0.46 | 0.46 | 58 | 1011.9 |
| 20260505041350 | 12 | 319 | 1.6 | 4.8 | 0.00 | 0.46 | 0.46 | 54 | 1011.8 |
| 20260505041245 | 12 | 304 | 0.0 | 4.8 | 0.00 | 0.46 | 0.46 | 54 | 1011.8 |
| 20260505041142 | 12 | 331 | 1.6 | 4.8 | 0.00 | 0.46 | 0.46 | 51 | 1011.9 |
| 20260505041039 | 12 | 46 | 1.6 | 4.8 | 0.00 | 0.46 | 0.46 | 53 | 1012.0 |
| 20260505034129 | 12 | 90 | 1.6 | 4.8 | 0.00 | 0.46 | 0.46 | 58 | 1011.8 |
| 20260505034031 | 12 | 110 | 0.0 | 3.2 | 0.00 | 0.46 | 0.46 | 58 | 1011.8 |
| 20260505033926 | 12 | 110 | 1.6 | 4.8 | 0.00 | 0.46 | 0.46 | 57 | 1011.8 |
| 20260505033900 | 12 | 76 | 1.6 | 4.8 | 0.00 | 0.46 | 0.46 | 56 | 1011.8 |
| 20260505033750 | 12 | 126 | 3.2 | 6.4 | 0.00 | 0.46 | 0.46 | 62 | 1011.8 |
| 20260505033652 | 12 | 130 | 1.6 | 8.0 | 0.00 | 0.46 | 0.46 | 56 | 1011.9 |
| 20260505033546 | 12 | 135 | 3.2 | 16.1 | 0.00 | 0.46 | 0.46 | 56 | 1011.8 |
| 20260505033445 | 12 | 149 | 4.8 | 16.1 | 0.00 | 0.46 | 0.46 | 62 | 1011.8 |
| 20260505033342 | 11 | 141 | 1.6 | 11.3 | 0.00 | 0.46 | 0.46 | 64 | 1011.9 |
| 20260505033233 | 11 | 140 | 6.4 | 11.3 | 0.00 | 0.46 | 0.46 | 64 | 1012.0 |
| 20260505033151 | 10 | 123 | 4.8 | 8.0 | 0.00 | 0.46 | 0.46 | 68 | 1012.0 |
| 20260505033121 | 10 | 132 | 3.2 | 8.0 | 0.05 | 0.46 | 0.46 | 70 | 1012.1 |
| 20260505032928 | 10 | 111 | 4.8 | 8.0 | 0.05 | 0.46 | 0.46 | 73 | 1011.9 |
| 20260505032830 | 9 | 164 | 3.2 | 14.5 | 0.05 | 0.46 | 0.46 | 67 | 1012.0 |
| 20260505032723 | 9 | 154 | 3.2 | 14.5 | 0.05 | 0.46 | 0.46 | 72 | 1012.0 |
| 20260505032622 | 9 | 157 | 1.6 | 11.3 | 0.05 | 0.46 | 0.46 | 73 | 1012.4 |
| 20260505032520 | 9 | 165 | 4.8 | 9.7 | 0.05 | 0.46 | 0.46 | 77 | 1012.5 |
| 20260505032414 | 8 | 42 | 1.6 | 9.7 | 0.05 | 0.46 | 0.46 | 72 | 1012.5 |
| 20260505032314 | 8 | 13 | 3.2 | 12.9 | 0.05 | 0.46 | 0.46 | 73 | 1012.7 |
| 20260505032212 | 8 | 37 | 6.4 | 12.9 | 0.05 | 0.46 | 0.46 | 74 | 1012.5 |
| 20260505032108 | 8 | 55 | 3.2 | 19.3 | 0.05 | 0.46 | 0.46 | 72 | 1012.5 |
| 20260505032011 | 8 | 347 | 9.7 | 19.3 | 0.05 | 0.46 | 0.46 | 70 | 1012.4 |
| 20260505031906 | 9 | 15 | 6.4 | 11.3 | 0.15 | 0.46 | 0.46 | 77 | 1012.4 |
| 20260505031801 | 9 | 345 | 3.2 | 8.0 | 0.28 | 0.41 | 0.41 | 69 | 1012.6 |
| 20260505031701 | 9 | 34 | 3.2 | 6.4 | 0.30 | 0.41 | 0.41 | 69 | 1012.6 |
| 20260505031623 | 9 | 44 | 3.2 | 6.4 | 0.30 | 0.41 | 0.41 | 76 | 1012.6 |
| 20260505031457 | 9 | 65 | 3.2 | 6.4 | 0.30 | 0.41 | 0.41 | 80 | 1012.7 |
| 20260505031355 | 9 | 33 | 3.2 | 6.4 | 0.30 | 0.41 | 0.41 | 77 | 1012.9 |
| 20260505031252 | 9 | 77 | 3.2 | 9.7 | 0.30 | 0.41 | 0.41 | 76 | 1013.0 |
| 20260505031148 | 9 | 61 | 3.2 | 9.7 | 0.30 | 0.41 | 0.41 | 80 | 1013.0 |
| 20260505031114 | 9 | 66 | 3.2 | 9.7 | 0.30 | 0.41 | 0.41 | 77 | 1013.1 |
| 20260505031043 | 8 | 102 | 3.2 | 11.3 | 0.30 | 0.41 | 0.41 | 77 | 1013.1 |
| 20260505030942 | 8 | 81 | 3.2 | 11.3 | 0.30 | 0.41 | 0.41 | 83 | 1013.2 |
| 20260505030839 | 8 | 94 | 4.8 | 12.9 | 0.28 | 0.36 | 0.36 | 71 | 1013.3 |
| 20260505030737 | 9 | 205 | 4.8 | 24.1 | 0.20 | 0.30 | 0.30 | 67 | 1013.6 |
| 20260505030633 | 11 | 336 | 8.0 | 24.1 | 0.00 | 0.10 | 0.10 | 62 | 1013.3 |
| 20260505030601 | 12 | 337 | 1.6 | 9.7 | 0.00 | 0.10 | 0.10 | 50 | 1013.2 |
| 20260505030458 | 12 | 74 | 4.8 | 9.7 | 0.00 | 0.10 | 0.10 | 47 | 1013.2 |
| 20260505030356 | 12 | 148 | 3.2 | 9.7 | 0.00 | 0.10 | 0.10 | 51 | 1013.2 |
| 20260505030250 | 12 | 186 | 4.8 | 11.3 | 0.00 | 0.10 | 0.10 | 53 | 1013.2 |
| 20260505030208 | 12 | 229 | 1.6 | 11.3 | 0.00 | 0.10 | 0.10 | 55 | 1013.4 |
| 20260505025945 | 12 | 27 | 3.2 | 12.9 | 0.00 | 0.10 | 0.10 | 57 | 1013.4 |
| 20260505025844 | 12 | 64 | 3.2 | 12.9 | 0.00 | 0.10 | 0.10 | 53 | 1013.6 |
| 20260505025740 | 11 | 350 | 3.2 | 9.7 | 0.00 | 0.10 | 0.10 | 61 | 1013.8 |
| 20260505025638 | 11 | 66 | 4.8 | 9.7 | 0.00 | 0.10 | 0.10 | 56 | 1013.8 |
| 20260505025534 | 11 | 256 | 0.0 | 6.4 | 0.00 | 0.10 | 0.10 | 60 | 1013.9 |
| 20260505025433 | 11 | 355 | 1.6 | 8.0 | 0.00 | 0.10 | 0.10 | 60 | 1014.2 |
| 20260505025333 | 10 | 15 | 1.6 | 8.0 | 0.00 | 0.10 | 0.10 | 64 | 1014.2 |
| 20260505025229 | 10 | 295 | 3.2 | 6.4 | 0.00 | 0.10 | 0.10 | 67 | 1014.5 |
| 20260505025128 | 9 | 321 | 3.2 | 6.4 | 0.00 | 0.10 | 0.10 | 68 | 1014.4 |
| 20260505025022 | 8 | 343 | 4.8 | 12.9 | 0.00 | 0.10 | 0.10 | 69 | 1014.6 |
| 20260505024924 | 8 | 259 | 6.4 | 16.1 | 0.00 | 0.10 | 0.10 | 69 | 1014.5 |
| 20260505024820 | 8 | 281 | 8.0 | 29.0 | 0.00 | 0.10 | 0.10 | 70 | 1014.7 |
| 20260505023911 | 8 | 232 | 6.4 | 29.0 | 0.00 | 0.10 | 0.10 | 69 | 1014.7 |
| 20260505023807 | 8 | 224 | 9.7 | 29.0 | 0.00 | 0.10 | 0.10 | 66 | 1014.7 |
| 20260505023705 | 9 | 198 | 9.7 | 29.0 | 0.00 | 0.10 | 0.10 | 64 | 1014.6 |
| 20260505023603 | 10 | 254 | 8.0 | 22.5 | 0.00 | 0.10 | 0.10 | 63 | 1014.6 |
| 20260505023501 | 10 | 207 | 12.9 | 25.7 | 0.03 | 0.10 | 0.10 | 60 | 1014.7 |
| 20260505023359 | 10 | 175 | 4.8 | 14.5 | 0.03 | 0.10 | 0.10 | 67 | 1014.9 |
| 20260505023304 | 10 | 339 | 1.6 | 9.7 | 0.03 | 0.10 | 0.10 | 66 | 1014.9 |
| 20260505020643 | 10 | 340 | 4.8 | 9.7 | 0.03 | 0.10 | 0.10 | 67 | 1015.0 |
| 20260505020537 | 10 | 32 | 1.6 | 11.3 | 0.05 | 0.10 | 0.10 | 66 | 1014.9 |
| 20260505020037 | 10 | 274 | 3.2 | 14.5 | 0.08 | 0.10 | 0.10 | 66 | 1015.1 |
| 20260505015908 | 11 | 182 | 4.8 | 16.1 | 0.10 | 0.10 | 0.10 | 66 | 1014.8 |
| 20260505015809 | 11 | 336 | 4.8 | 14.5 | 0.10 | 0.10 | 0.10 | 63 | 1014.7 |
| 20260505015708 | 11 | 291 | 4.8 | 14.5 | 0.10 | 0.10 | 0.10 | 62 | 1014.7 |
| 20260505015605 | 11 | 338 | 3.2 | 14.5 | 0.10 | 0.10 | 0.10 | 62 | 1014.7 |
| 20260505015502 | 10 | 14 | 3.2 | 14.5 | 0.10 | 0.10 | 0.10 | 63 | 1014.6 |
| 20260505015409 | 8 | 234 | 3.2 | 12.9 | 0.10 | 0.10 | 0.10 | 72 | 1014.9 |
| 20260505015257 | 8 | 284 | 3.2 | 12.9 | 0.08 | 0.08 | 0.08 | 70 | 1014.9 |
| 20260505015155 | 7 | 261 | 3.2 | 17.7 | 0.08 | 0.08 | 0.08 | 70 | 1015.0 |
| 20260505015052 | 7 | 315 | 3.2 | 14.5 | 0.08 | 0.08 | 0.08 | 70 | 1015.1 |
| 20260505014951 | 8 | 254 | 4.8 | 11.3 | 0.08 | 0.08 | 0.08 | 66 | 1014.9 |
| 20260505014849 | 8 | 194 | 6.4 | 25.7 | 0.05 | 0.05 | 0.05 | 64 | 1015.1 |
| 20260504175017 | 10 | 174 | 8.0 | 25.7 | 0.03 | 0.03 | 0.03 | 57 | 1015.2 |
| 20260504160208 | 11 | 236 | 0.0 | 8.0 | 0.00 | 0.00 | 0.00 | 52 | 1015.4 |
| 20260504151056 | 11 | 180 | 3.2 | 9.7 | 0.00 | 0.00 | 0.00 | 52 | 1016.0 |
| 20260504150553 | 11 | 209 | 4.8 | 12.9 | 0.00 | 0.00 | 0.00 | 50 | 1016.0 |
| 20260504150119 | 12 | 207 | 4.8 | 12.9 | 0.00 | 0.00 | 0.00 | 49 | 1015.8 |